sensor_id;sensor_type;location;lat;lon;timestamp;P1;durP1;ratioP1;P2;durP2;ratioP2
59828;SDS011;45708;51.848;107.620;2023-04-24T00:05:01;21.92;;;12.27;;
59828;SDS011;45708;51.848;107.620;2023-04-24T00:10:01;26.05;;;12.05;;
59828;SDS011;45708;51.848;107.620;2023-04-24T00:15:03;15.02;;;9.57;;
59828;SDS011;45708;51.848;107.620;2023-04-24T00:20:07;14.80;;;8.65;;
59828;SDS011;45708;51.848;107.620;2023-04-24T00:25:08;19.25;;;10.23;;
59828;SDS011;45708;51.848;107.620;2023-04-24T00:30:09;27.55;;;10.60;;
59828;SDS011;45708;51.848;107.620;2023-04-24T00:35:10;19.08;;;10.57;;
59828;SDS011;45708;51.848;107.620;2023-04-24T00:40:11;17.33;;;9.75;;
59828;SDS011;45708;51.848;107.620;2023-04-24T00:45:12;18.75;;;9.45;;
59828;SDS011;45708;51.848;107.620;2023-04-24T00:50:14;15.30;;;8.95;;
59828;SDS011;45708;51.848;107.620;2023-04-24T00:55:15;9.93;;;6.05;;
59828;SDS011;45708;51.848;107.620;2023-04-24T01:00:16;12.18;;;6.35;;
59828;SDS011;45708;51.848;107.620;2023-04-24T01:05:17;8.82;;;6.97;;
59828;SDS011;45708;51.848;107.620;2023-04-24T01:10:19;13.15;;;6.75;;
59828;SDS011;45708;51.848;107.620;2023-04-24T01:15:21;11.50;;;6.63;;
59828;SDS011;45708;51.848;107.620;2023-04-24T01:20:21;14.63;;;7.88;;
59828;SDS011;45708;51.848;107.620;2023-04-24T01:25:24;11.13;;;7.13;;
59828;SDS011;45708;51.848;107.620;2023-04-24T01:30:28;17.35;;;9.63;;
59828;SDS011;45708;51.848;107.620;2023-04-24T01:35:29;15.50;;;6.93;;
59828;SDS011;45708;51.848;107.620;2023-04-24T01:40:30;11.20;;;7.70;;
59828;SDS011;45708;51.848;107.620;2023-04-24T01:45:31;9.10;;;5.47;;
59828;SDS011;45708;51.848;107.620;2023-04-24T01:50:32;5.32;;;4.47;;
59828;SDS011;45708;51.848;107.620;2023-04-24T01:55:33;7.55;;;5.05;;
59828;SDS011;45708;51.848;107.620;2023-04-24T02:00:34;8.27;;;4.72;;
59828;SDS011;45708;51.848;107.620;2023-04-24T02:05:34;13.30;;;5.40;;
59828;SDS011;45708;51.848;107.620;2023-04-24T02:10:35;13.93;;;5.28;;
59828;SDS011;45708;51.848;107.620;2023-04-24T02:15:36;12.68;;;7.88;;
59828;SDS011;45708;51.848;107.620;2023-04-24T02:20:37;9.75;;;5.38;;
59828;SDS011;45708;51.848;107.620;2023-04-24T02:25:37;11.27;;;5.88;;
59828;SDS011;45708;51.848;107.620;2023-04-24T02:30:38;9.10;;;5.20;;
59828;SDS011;45708;51.848;107.620;2023-04-24T02:35:39;9.35;;;5.70;;
59828;SDS011;45708;51.848;107.620;2023-04-24T02:40:40;10.02;;;5.70;;
59828;SDS011;45708;51.848;107.620;2023-04-24T02:45:41;9.07;;;5.38;;
59828;SDS011;45708;51.848;107.620;2023-04-24T02:50:41;9.57;;;5.45;;
59828;SDS011;45708;51.848;107.620;2023-04-24T02:55:42;7.72;;;5.25;;
59828;SDS011;45708;51.848;107.620;2023-04-24T03:00:43;11.35;;;6.68;;
59828;SDS011;45708;51.848;107.620;2023-04-24T03:05:45;14.68;;;6.40;;
59828;SDS011;45708;51.848;107.620;2023-04-24T03:10:45;9.23;;;5.95;;
59828;SDS011;45708;51.848;107.620;2023-04-24T03:15:46;3.53;;;3.00;;
59828;SDS011;45708;51.848;107.620;2023-04-24T03:20:48;15.15;;;5.50;;
59828;SDS011;45708;51.848;107.620;2023-04-24T03:25:49;3.85;;;2.70;;
59828;SDS011;45708;51.848;107.620;2023-04-24T03:30:50;2.30;;;1.88;;
59828;SDS011;45708;51.848;107.620;2023-04-24T03:35:51;15.52;;;3.60;;
59828;SDS011;45708;51.848;107.620;2023-04-24T03:40:52;4.10;;;2.30;;
59828;SDS011;45708;51.848;107.620;2023-04-24T03:45:53;2.35;;;1.95;;
59828;SDS011;45708;51.848;107.620;2023-04-24T03:50:54;3.90;;;2.25;;
59828;SDS011;45708;51.848;107.620;2023-04-24T03:55:55;3.13;;;1.30;;
59828;SDS011;45708;51.848;107.620;2023-04-24T04:00:56;1.90;;;1.77;;
59828;SDS011;45708;51.848;107.620;2023-04-24T04:05:56;2.53;;;2.03;;
59828;SDS011;45708;51.848;107.620;2023-04-24T04:10:57;1.90;;;1.45;;
59828;SDS011;45708;51.848;107.620;2023-04-24T04:15:58;1.67;;;1.58;;
59828;SDS011;45708;51.848;107.620;2023-04-24T04:20:59;4.15;;;1.60;;
59828;SDS011;45708;51.848;107.620;2023-04-24T04:26:00;2.20;;;1.67;;
59828;SDS011;45708;51.848;107.620;2023-04-24T04:31:01;3.22;;;1.60;;
59828;SDS011;45708;51.848;107.620;2023-04-24T04:36:02;4.93;;;2.97;;
59828;SDS011;45708;51.848;107.620;2023-04-24T04:41:03;6.30;;;1.67;;
59828;SDS011;45708;51.848;107.620;2023-04-24T04:46:04;1.95;;;1.60;;
59828;SDS011;45708;51.848;107.620;2023-04-24T04:51:05;2.00;;;1.75;;
59828;SDS011;45708;51.848;107.620;2023-04-24T04:56:06;3.10;;;2.08;;
59828;SDS011;45708;51.848;107.620;2023-04-24T05:01:06;4.15;;;2.63;;
59828;SDS011;45708;51.848;107.620;2023-04-24T05:06:07;3.45;;;2.85;;
59828;SDS011;45708;51.848;107.620;2023-04-24T05:11:08;3.70;;;1.45;;
59828;SDS011;45708;51.848;107.620;2023-04-24T05:16:09;1.73;;;1.40;;
59828;SDS011;45708;51.848;107.620;2023-04-24T05:21:10;7.28;;;3.67;;
59828;SDS011;45708;51.848;107.620;2023-04-24T05:26:11;3.70;;;2.15;;
59828;SDS011;45708;51.848;107.620;2023-04-24T05:31:13;8.07;;;2.33;;
59828;SDS011;45708;51.848;107.620;2023-04-24T05:36:15;9.55;;;2.72;;
59828;SDS011;45708;51.848;107.620;2023-04-24T05:41:15;2.83;;;1.90;;
59828;SDS011;45708;51.848;107.620;2023-04-24T05:46:16;4.03;;;2.45;;
59828;SDS011;45708;51.848;107.620;2023-04-24T05:51:17;7.05;;;2.05;;
59828;SDS011;45708;51.848;107.620;2023-04-24T05:56:18;1.90;;;1.55;;
59828;SDS011;45708;51.848;107.620;2023-04-24T06:01:19;6.75;;;4.47;;
59828;SDS011;45708;51.848;107.620;2023-04-24T06:06:20;9.07;;;2.22;;
59828;SDS011;45708;51.848;107.620;2023-04-24T06:11:21;4.65;;;2.10;;
59828;SDS011;45708;51.848;107.620;2023-04-24T06:16:21;3.45;;;2.10;;
59828;SDS011;45708;51.848;107.620;2023-04-24T06:21:22;2.95;;;2.30;;
59828;SDS011;45708;51.848;107.620;2023-04-24T06:26:23;4.13;;;2.10;;
59828;SDS011;45708;51.848;107.620;2023-04-24T06:31:24;4.75;;;2.25;;
59828;SDS011;45708;51.848;107.620;2023-04-24T06:36:25;4.45;;;2.30;;
59828;SDS011;45708;51.848;107.620;2023-04-24T06:41:26;3.60;;;2.00;;
59828;SDS011;45708;51.848;107.620;2023-04-24T06:46:26;3.50;;;2.20;;
59828;SDS011;45708;51.848;107.620;2023-04-24T06:51:27;4.75;;;3.15;;
59828;SDS011;45708;51.848;107.620;2023-04-24T06:56:28;3.78;;;2.22;;
59828;SDS011;45708;51.848;107.620;2023-04-24T07:01:29;2.80;;;2.10;;
59828;SDS011;45708;51.848;107.620;2023-04-24T07:06:29;2.45;;;1.98;;
59828;SDS011;45708;51.848;107.620;2023-04-24T07:11:30;2.33;;;2.13;;
59828;SDS011;45708;51.848;107.620;2023-04-24T07:16:31;4.85;;;2.35;;
59828;SDS011;45708;51.848;107.620;2023-04-24T07:21:32;4.05;;;2.63;;
59828;SDS011;45708;51.848;107.620;2023-04-24T07:26:33;2.60;;;2.40;;
59828;SDS011;45708;51.848;107.620;2023-04-24T07:31:34;2.70;;;2.10;;
59828;SDS011;45708;51.848;107.620;2023-04-24T07:36:35;6.95;;;2.83;;
59828;SDS011;45708;51.848;107.620;2023-04-24T07:41:36;7.07;;;3.50;;
59828;SDS011;45708;51.848;107.620;2023-04-24T07:46:37;4.75;;;2.10;;
59828;SDS011;45708;51.848;107.620;2023-04-24T07:51:38;4.95;;;2.40;;
59828;SDS011;45708;51.848;107.620;2023-04-24T07:56:38;8.50;;;2.70;;
59828;SDS011;45708;51.848;107.620;2023-04-24T08:01:40;4.03;;;2.88;;
59828;SDS011;45708;51.848;107.620;2023-04-24T08:06:41;2.97;;;2.28;;
59828;SDS011;45708;51.848;107.620;2023-04-24T08:11:43;2.25;;;1.60;;
59828;SDS011;45708;51.848;107.620;2023-04-24T08:16:44;2.50;;;1.98;;
59828;SDS011;45708;51.848;107.620;2023-04-24T08:21:44;3.90;;;2.33;;
59828;SDS011;45708;51.848;107.620;2023-04-24T08:26:45;1.52;;;1.00;;
59828;SDS011;45708;51.848;107.620;2023-04-24T08:31:46;5.57;;;2.80;;
59828;SDS011;45708;51.848;107.620;2023-04-24T08:36:47;2.42;;;1.77;;
59828;SDS011;45708;51.848;107.620;2023-04-24T08:41:48;3.15;;;2.20;;
59828;SDS011;45708;51.848;107.620;2023-04-24T08:46:50;4.93;;;2.22;;
59828;SDS011;45708;51.848;107.620;2023-04-24T08:51:52;3.78;;;1.70;;
59828;SDS011;45708;51.848;107.620;2023-04-24T08:56:54;2.40;;;2.20;;
59828;SDS011;45708;51.848;107.620;2023-04-24T09:02:00;2.40;;;2.20;;
59828;SDS011;45708;51.848;107.620;2023-04-24T09:07:03;4.70;;;2.17;;
59828;SDS011;45708;51.848;107.620;2023-04-24T09:12:06;4.07;;;1.92;;
59828;SDS011;45708;51.848;107.620;2023-04-24T09:17:07;10.35;;;2.30;;
59828;SDS011;45708;51.848;107.620;2023-04-24T09:22:09;3.60;;;2.47;;
59828;SDS011;45708;51.848;107.620;2023-04-24T09:27:10;14.38;;;3.33;;
59828;SDS011;45708;51.848;107.620;2023-04-24T09:32:18;5.18;;;2.38;;
59828;SDS011;45708;51.848;107.620;2023-04-24T09:37:29;6.35;;;3.10;;
59828;SDS011;45708;51.848;107.620;2023-04-24T09:42:35;12.65;;;3.15;;
59828;SDS011;45708;51.848;107.620;2023-04-24T09:47:36;8.13;;;2.58;;
59828;SDS011;45708;51.848;107.620;2023-04-24T09:52:42;8.80;;;3.00;;
59828;SDS011;45708;51.848;107.620;2023-04-24T09:58:00;9.25;;;3.20;;
59828;SDS011;45708;51.848;107.620;2023-04-24T10:03:02;6.88;;;2.58;;
59828;SDS011;45708;51.848;107.620;2023-04-24T10:08:08;5.82;;;3.83;;
59828;SDS011;45708;51.848;107.620;2023-04-24T10:13:10;6.53;;;3.22;;
59828;SDS011;45708;51.848;107.620;2023-04-24T10:18:12;3.80;;;2.40;;
59828;SDS011;45708;51.848;107.620;2023-04-24T10:23:13;5.88;;;3.50;;
59828;SDS011;45708;51.848;107.620;2023-04-24T10:28:15;8.65;;;2.85;;
59828;SDS011;45708;51.848;107.620;2023-04-24T10:33:17;3.47;;;2.55;;
59828;SDS011;45708;51.848;107.620;2023-04-24T10:38:21;7.43;;;2.85;;
59828;SDS011;45708;51.848;107.620;2023-04-24T10:43:24;10.32;;;3.10;;
59828;SDS011;45708;51.848;107.620;2023-04-24T10:48:26;6.85;;;2.70;;
59828;SDS011;45708;51.848;107.620;2023-04-24T10:53:27;9.50;;;3.85;;
59828;SDS011;45708;51.848;107.620;2023-04-24T10:58:36;7.22;;;3.65;;
59828;SDS011;45708;51.848;107.620;2023-04-24T11:03:41;12.35;;;5.90;;
59828;SDS011;45708;51.848;107.620;2023-04-24T11:08:58;7.05;;;3.47;;
59828;SDS011;45708;51.848;107.620;2023-04-24T11:14:08;8.05;;;4.60;;
59828;SDS011;45708;51.848;107.620;2023-04-24T11:29:49;13.38;;;6.30;;
59828;SDS011;45708;51.848;107.620;2023-04-24T11:40:07;20.55;;;8.73;;
59828;SDS011;45708;51.848;107.620;2023-04-24T11:45:11;21.13;;;10.40;;
59828;SDS011;45708;51.848;107.620;2023-04-24T11:50:13;28.30;;;12.55;;
59828;SDS011;45708;51.848;107.620;2023-04-24T12:00:17;66.35;;;29.40;;
59828;SDS011;45708;51.848;107.620;2023-04-24T12:05:23;74.50;;;31.90;;
59828;SDS011;45708;51.848;107.620;2023-04-24T12:10:26;69.20;;;27.13;;
59828;SDS011;45708;51.848;107.620;2023-04-24T12:15:28;48.60;;;26.48;;
59828;SDS011;45708;51.848;107.620;2023-04-24T12:20:30;51.70;;;24.23;;
59828;SDS011;45708;51.848;107.620;2023-04-24T12:25:32;45.63;;;23.05;;
59828;SDS011;45708;51.848;107.620;2023-04-24T12:30:34;30.92;;;14.50;;
59828;SDS011;45708;51.848;107.620;2023-04-24T12:35:40;26.95;;;11.10;;
59828;SDS011;45708;51.848;107.620;2023-04-24T12:40:41;61.00;;;24.20;;
59828;SDS011;45708;51.848;107.620;2023-04-24T12:45:43;37.45;;;16.55;;
59828;SDS011;45708;51.848;107.620;2023-04-24T12:50:44;22.27;;;9.73;;
59828;SDS011;45708;51.848;107.620;2023-04-24T12:55:45;6.25;;;4.43;;
59828;SDS011;45708;51.848;107.620;2023-04-24T13:00:46;5.30;;;3.85;;
59828;SDS011;45708;51.848;107.620;2023-04-24T13:05:47;13.57;;;6.35;;
59828;SDS011;45708;51.848;107.620;2023-04-24T13:10:48;13.25;;;5.28;;
59828;SDS011;45708;51.848;107.620;2023-04-24T13:15:49;13.85;;;6.47;;
59828;SDS011;45708;51.848;107.620;2023-04-24T13:20:50;15.73;;;8.35;;
59828;SDS011;45708;51.848;107.620;2023-04-24T13:25:51;34.53;;;11.18;;
59828;SDS011;45708;51.848;107.620;2023-04-24T13:30:51;61.72;;;22.83;;
59828;SDS011;45708;51.848;107.620;2023-04-24T13:35:54;52.97;;;18.88;;
59828;SDS011;45708;51.848;107.620;2023-04-24T13:40:54;57.40;;;21.77;;
59828;SDS011;45708;51.848;107.620;2023-04-24T13:45:55;60.92;;;23.58;;
59828;SDS011;45708;51.848;107.620;2023-04-24T13:50:56;69.32;;;28.67;;
59828;SDS011;45708;51.848;107.620;2023-04-24T13:55:57;100.70;;;37.30;;
59828;SDS011;45708;51.848;107.620;2023-04-24T14:00:58;84.93;;;32.13;;
59828;SDS011;45708;51.848;107.620;2023-04-24T14:05:58;69.05;;;26.23;;
59828;SDS011;45708;51.848;107.620;2023-04-24T14:10:59;73.60;;;27.48;;
59828;SDS011;45708;51.848;107.620;2023-04-24T14:16:00;88.65;;;30.08;;
59828;SDS011;45708;51.848;107.620;2023-04-24T14:21:02;65.70;;;28.38;;
59828;SDS011;45708;51.848;107.620;2023-04-24T14:26:03;80.82;;;28.83;;
59828;SDS011;45708;51.848;107.620;2023-04-24T14:31:04;66.30;;;29.08;;
59828;SDS011;45708;51.848;107.620;2023-04-24T14:36:05;82.95;;;30.80;;
59828;SDS011;45708;51.848;107.620;2023-04-24T14:41:06;82.82;;;31.58;;
59828;SDS011;45708;51.848;107.620;2023-04-24T14:46:06;78.72;;;34.47;;
59828;SDS011;45708;51.848;107.620;2023-04-24T14:51:07;77.75;;;36.00;;
59828;SDS011;45708;51.848;107.620;2023-04-24T14:56:08;74.82;;;34.65;;
59828;SDS011;45708;51.848;107.620;2023-04-24T15:01:10;78.93;;;33.50;;
59828;SDS011;45708;51.848;107.620;2023-04-24T15:06:11;72.18;;;28.05;;
59828;SDS011;45708;51.848;107.620;2023-04-24T15:11:12;67.07;;;26.85;;
59828;SDS011;45708;51.848;107.620;2023-04-24T15:16:13;52.13;;;22.02;;
59828;SDS011;45708;51.848;107.620;2023-04-24T15:21:13;69.40;;;27.33;;
59828;SDS011;45708;51.848;107.620;2023-04-24T15:26:14;69.78;;;26.50;;
59828;SDS011;45708;51.848;107.620;2023-04-24T15:31:15;87.22;;;31.88;;
59828;SDS011;45708;51.848;107.620;2023-04-24T15:36:16;81.88;;;29.55;;
59828;SDS011;45708;51.848;107.620;2023-04-24T15:41:17;59.97;;;23.33;;
59828;SDS011;45708;51.848;107.620;2023-04-24T15:46:18;53.88;;;24.58;;
59828;SDS011;45708;51.848;107.620;2023-04-24T15:51:19;29.52;;;14.20;;
59828;SDS011;45708;51.848;107.620;2023-04-24T15:56:20;32.83;;;17.10;;
59828;SDS011;45708;51.848;107.620;2023-04-24T16:01:21;43.58;;;19.52;;
59828;SDS011;45708;51.848;107.620;2023-04-24T16:06:23;43.93;;;18.17;;
59828;SDS011;45708;51.848;107.620;2023-04-24T16:11:23;33.38;;;14.57;;
59828;SDS011;45708;51.848;107.620;2023-04-24T16:16:24;39.33;;;16.03;;
59828;SDS011;45708;51.848;107.620;2023-04-24T16:21:25;33.47;;;16.20;;
59828;SDS011;45708;51.848;107.620;2023-04-24T16:26:26;30.42;;;14.48;;
59828;SDS011;45708;51.848;107.620;2023-04-24T16:31:27;41.87;;;15.97;;
59828;SDS011;45708;51.848;107.620;2023-04-24T16:36:27;30.10;;;14.50;;
59828;SDS011;45708;51.848;107.620;2023-04-24T16:41:28;32.37;;;16.83;;
59828;SDS011;45708;51.848;107.620;2023-04-24T16:46:30;29.87;;;12.93;;
59828;SDS011;45708;51.848;107.620;2023-04-24T16:51:31;44.57;;;15.13;;
59828;SDS011;45708;51.848;107.620;2023-04-24T16:56:31;22.67;;;9.83;;
59828;SDS011;45708;51.848;107.620;2023-04-24T17:01:33;17.97;;;8.70;;
59828;SDS011;45708;51.848;107.620;2023-04-24T17:06:34;21.37;;;10.53;;
59828;SDS011;45708;51.848;107.620;2023-04-24T17:11:35;28.63;;;10.63;;
59828;SDS011;45708;51.848;107.620;2023-04-24T17:16:36;33.70;;;15.40;;
59828;SDS011;45708;51.848;107.620;2023-04-24T17:21:37;69.00;;;27.57;;
59828;SDS011;45708;51.848;107.620;2023-04-24T17:26:38;58.63;;;25.37;;
59828;SDS011;45708;51.848;107.620;2023-04-24T17:31:38;62.77;;;25.27;;
59828;SDS011;45708;51.848;107.620;2023-04-24T17:36:39;50.63;;;19.27;;
59828;SDS011;45708;51.848;107.620;2023-04-24T17:41:40;45.13;;;17.63;;
59828;SDS011;45708;51.848;107.620;2023-04-24T17:46:41;45.73;;;20.03;;
59828;SDS011;45708;51.848;107.620;2023-04-24T17:51:42;33.53;;;14.83;;
59828;SDS011;45708;51.848;107.620;2023-04-24T17:56:42;19.10;;;10.70;;
59828;SDS011;45708;51.848;107.620;2023-04-24T18:01:43;15.77;;;7.17;;
59828;SDS011;45708;51.848;107.620;2023-04-24T18:06:44;23.57;;;8.13;;
59828;SDS011;45708;51.848;107.620;2023-04-24T18:11:45;38.97;;;15.13;;
59828;SDS011;45708;51.848;107.620;2023-04-24T18:16:46;46.90;;;17.23;;
59828;SDS011;45708;51.848;107.620;2023-04-24T18:21:47;22.63;;;11.03;;
59828;SDS011;45708;51.848;107.620;2023-04-24T18:26:47;20.57;;;9.37;;
59828;SDS011;45708;51.848;107.620;2023-04-24T18:31:48;9.00;;;3.63;;
59828;SDS011;45708;51.848;107.620;2023-04-24T18:36:49;7.93;;;4.97;;
59828;SDS011;45708;51.848;107.620;2023-04-24T18:41:50;20.07;;;9.83;;
59828;SDS011;45708;51.848;107.620;2023-04-24T18:46:51;18.60;;;9.67;;
59828;SDS011;45708;51.848;107.620;2023-04-24T18:51:52;12.77;;;6.60;;
59828;SDS011;45708;51.848;107.620;2023-04-24T18:56:52;10.03;;;5.10;;
59828;SDS011;45708;51.848;107.620;2023-04-24T19:01:53;14.27;;;5.27;;
59828;SDS011;45708;51.848;107.620;2023-04-24T19:06:54;8.70;;;5.50;;
59828;SDS011;45708;51.848;107.620;2023-04-24T19:11:55;21.77;;;8.93;;
59828;SDS011;45708;51.848;107.620;2023-04-24T19:16:56;5.73;;;3.10;;
59828;SDS011;45708;51.848;107.620;2023-04-24T19:21:57;11.53;;;5.47;;
59828;SDS011;45708;51.848;107.620;2023-04-24T19:26:57;18.07;;;7.43;;
59828;SDS011;45708;51.848;107.620;2023-04-24T19:31:58;18.80;;;8.93;;
59828;SDS011;45708;51.848;107.620;2023-04-24T19:37:00;14.00;;;7.73;;
59828;SDS011;45708;51.848;107.620;2023-04-24T19:42:01;19.07;;;9.83;;
59828;SDS011;45708;51.848;107.620;2023-04-24T19:47:01;21.37;;;11.03;;
59828;SDS011;45708;51.848;107.620;2023-04-24T19:52:02;31.47;;;15.60;;
59828;SDS011;45708;51.848;107.620;2023-04-24T19:57:03;28.73;;;13.53;;
59828;SDS011;45708;51.848;107.620;2023-04-24T20:02:04;17.47;;;8.27;;
59828;SDS011;45708;51.848;107.620;2023-04-24T20:07:05;20.00;;;10.47;;
59828;SDS011;45708;51.848;107.620;2023-04-24T20:12:05;24.63;;;9.97;;
59828;SDS011;45708;51.848;107.620;2023-04-24T20:17:06;9.23;;;5.30;;
59828;SDS011;45708;51.848;107.620;2023-04-24T20:22:08;9.97;;;5.53;;
59828;SDS011;45708;51.848;107.620;2023-04-24T20:27:09;8.23;;;5.20;;
59828;SDS011;45708;51.848;107.620;2023-04-24T20:32:10;7.27;;;4.23;;
59828;SDS011;45708;51.848;107.620;2023-04-24T20:37:11;4.93;;;4.07;;
59828;SDS011;45708;51.848;107.620;2023-04-24T20:42:12;25.10;;;9.03;;
59828;SDS011;45708;51.848;107.620;2023-04-24T20:47:12;14.27;;;6.97;;
59828;SDS011;45708;51.848;107.620;2023-04-24T20:52:13;13.23;;;6.50;;
59828;SDS011;45708;51.848;107.620;2023-04-24T20:57:16;10.57;;;5.07;;
59828;SDS011;45708;51.848;107.620;2023-04-24T21:02:17;5.10;;;3.07;;
59828;SDS011;45708;51.848;107.620;2023-04-24T21:07:18;29.83;;;12.90;;
59828;SDS011;45708;51.848;107.620;2023-04-24T21:12:18;27.00;;;13.40;;
59828;SDS011;45708;51.848;107.620;2023-04-24T21:17:19;38.73;;;16.70;;
59828;SDS011;45708;51.848;107.620;2023-04-24T21:22:20;47.60;;;18.37;;
59828;SDS011;45708;51.848;107.620;2023-04-24T21:27:21;38.13;;;18.20;;
59828;SDS011;45708;51.848;107.620;2023-04-24T21:32:22;25.90;;;12.00;;
59828;SDS011;45708;51.848;107.620;2023-04-24T21:37:23;23.47;;;10.00;;
59828;SDS011;45708;51.848;107.620;2023-04-24T21:42:24;21.20;;;7.93;;
59828;SDS011;45708;51.848;107.620;2023-04-24T21:47:25;24.97;;;9.57;;
59828;SDS011;45708;51.848;107.620;2023-04-24T21:52:26;14.83;;;6.13;;
59828;SDS011;45708;51.848;107.620;2023-04-24T21:57:27;13.33;;;8.17;;
59828;SDS011;45708;51.848;107.620;2023-04-24T22:02:29;19.87;;;7.10;;
59828;SDS011;45708;51.848;107.620;2023-04-24T22:07:31;24.13;;;8.70;;
59828;SDS011;45708;51.848;107.620;2023-04-24T22:12:32;24.10;;;10.17;;
59828;SDS011;45708;51.848;107.620;2023-04-24T22:17:33;30.70;;;15.20;;
59828;SDS011;45708;51.848;107.620;2023-04-24T22:22:35;30.40;;;12.93;;
59828;SDS011;45708;51.848;107.620;2023-04-24T22:27:35;21.80;;;10.93;;
59828;SDS011;45708;51.848;107.620;2023-04-24T22:32:36;19.93;;;7.93;;
59828;SDS011;45708;51.848;107.620;2023-04-24T22:37:37;15.17;;;7.70;;
59828;SDS011;45708;51.848;107.620;2023-04-24T22:42:38;29.70;;;14.60;;
59828;SDS011;45708;51.848;107.620;2023-04-24T22:47:39;26.13;;;11.43;;
59828;SDS011;45708;51.848;107.620;2023-04-24T22:52:40;33.53;;;14.10;;
59828;SDS011;45708;51.848;107.620;2023-04-24T22:57:40;24.43;;;13.03;;
59828;SDS011;45708;51.848;107.620;2023-04-24T23:02:41;25.90;;;12.43;;
59828;SDS011;45708;51.848;107.620;2023-04-24T23:07:42;26.33;;;14.33;;
59828;SDS011;45708;51.848;107.620;2023-04-24T23:12:43;37.40;;;14.93;;
59828;SDS011;45708;51.848;107.620;2023-04-24T23:17:44;17.02;;;10.00;;
59828;SDS011;45708;51.848;107.620;2023-04-24T23:22:44;19.30;;;9.55;;
59828;SDS011;45708;51.848;107.620;2023-04-24T23:27:45;16.58;;;10.50;;
59828;SDS011;45708;51.848;107.620;2023-04-24T23:32:46;7.30;;;3.30;;
59828;SDS011;45708;51.848;107.620;2023-04-24T23:37:47;23.77;;;11.75;;
59828;SDS011;45708;51.848;107.620;2023-04-24T23:42:48;17.88;;;10.57;;
59828;SDS011;45708;51.848;107.620;2023-04-24T23:47:48;14.43;;;7.13;;
59828;SDS011;45708;51.848;107.620;2023-04-24T23:52:49;24.35;;;8.15;;
59828;SDS011;45708;51.848;107.620;2023-04-24T23:57:50;17.27;;;7.95;;
